sensor_id;sensor_type;location;lat;lon;timestamp;pressure;altitude;pressure_sealevel;temperature;humidity
8334;BME280;4204;43.004;23.052;2022-08-20T00:01:05;93494.03;;;21.52;100.00
8334;BME280;4204;43.004;23.052;2022-08-20T00:03:37;93492.91;;;21.35;100.00
8334;BME280;4204;43.004;23.052;2022-08-20T00:06:08;93495.63;;;21.25;100.00
8334;BME280;4204;43.004;23.052;2022-08-20T00:08:36;93481.31;;;21.14;100.00
8334;BME280;4204;43.004;23.052;2022-08-20T00:11:05;93478.59;;;21.07;100.00
8334;BME280;4204;43.004;23.052;2022-08-20T00:13:38;93474.31;;;20.98;100.00
8334;BME280;4204;43.004;23.052;2022-08-20T00:16:07;93471.97;;;20.90;100.00
8334;BME280;4204;43.004;23.052;2022-08-20T00:18:37;93477.41;;;20.86;100.00
8334;BME280;4204;43.004;23.052;2022-08-20T00:21:07;93484.72;;;20.86;100.00
8334;BME280;4204;43.004;23.052;2022-08-20T00:23:36;93494.41;;;20.83;100.00
8334;BME280;4204;43.004;23.052;2022-08-20T00:26:04;93492.81;;;20.72;100.00
8334;BME280;4204;43.004;23.052;2022-08-20T00:28:32;93488.56;;;20.60;100.00
8334;BME280;4204;43.004;23.052;2022-08-20T00:31:02;93490.47;;;20.56;100.00
8334;BME280;4204;43.004;23.052;2022-08-20T00:33:31;93484.28;;;20.45;100.00
8334;BME280;4204;43.004;23.052;2022-08-20T00:36:00;93462.59;;;20.24;100.00
8334;BME280;4204;43.004;23.052;2022-08-20T00:38:32;93476.13;;;20.28;100.00
8334;BME280;4204;43.004;23.052;2022-08-20T00:41:00;93460.28;;;20.23;100.00
8334;BME280;4204;43.004;23.052;2022-08-20T00:43:34;93463.38;;;20.21;100.00
8334;BME280;4204;43.004;23.052;2022-08-20T00:46:05;93448.25;;;20.06;100.00
8334;BME280;4204;43.004;23.052;2022-08-20T00:48:36;93446.31;;;20.13;100.00
8334;BME280;4204;43.004;23.052;2022-08-20T00:51:09;93459.88;;;20.17;100.00
8334;BME280;4204;43.004;23.052;2022-08-20T00:53:37;93432.44;;;20.08;100.00
8334;BME280;4204;43.004;23.052;2022-08-20T00:56:06;93456.81;;;20.22;100.00
8334;BME280;4204;43.004;23.052;2022-08-20T00:58:35;93450.25;;;20.23;100.00
8334;BME280;4204;43.004;23.052;2022-08-20T01:01:05;93432.03;;;20.06;100.00
8334;BME280;4204;43.004;23.052;2022-08-20T01:03:34;93454.13;;;20.36;100.00
8334;BME280;4204;43.004;23.052;2022-08-20T01:06:02;93444.53;;;20.49;100.00
8334;BME280;4204;43.004;23.052;2022-08-20T01:08:31;93452.66;;;20.63;100.00
8334;BME280;4204;43.004;23.052;2022-08-20T01:10:59;93452.66;;;20.74;100.00
8334;BME280;4204;43.004;23.052;2022-08-20T01:13:41;93448.44;;;20.83;100.00
8334;BME280;4204;43.004;23.052;2022-08-20T01:16:17;93428.34;;;20.84;100.00
8334;BME280;4204;43.004;23.052;2022-08-20T01:18:48;93437.22;;;20.88;100.00
8334;BME280;4204;43.004;23.052;2022-08-20T01:21:19;93449.59;;;20.86;100.00
8334;BME280;4204;43.004;23.052;2022-08-20T01:24:00;93432.19;;;20.80;100.00
8334;BME280;4204;43.004;23.052;2022-08-20T01:26:33;93431.44;;;20.76;100.00
8334;BME280;4204;43.004;23.052;2022-08-20T01:29:04;93428.34;;;20.56;100.00
8334;BME280;4204;43.004;23.052;2022-08-20T01:31:36;93424.06;;;20.55;100.00
8334;BME280;4204;43.004;23.052;2022-08-20T01:34:06;93420.22;;;20.49;100.00
8334;BME280;4204;43.004;23.052;2022-08-20T01:36:37;93429.50;;;20.48;100.00
8334;BME280;4204;43.004;23.052;2022-08-20T01:39:07;93426.03;;;20.62;100.00
8334;BME280;4204;43.004;23.052;2022-08-20T01:41:46;93425.66;;;20.70;100.00
8334;BME280;4204;43.004;23.052;2022-08-20T01:44:18;93438.78;;;20.65;100.00
8334;BME280;4204;43.004;23.052;2022-08-20T01:46:50;93428.72;;;20.72;100.00
8334;BME280;4204;43.004;23.052;2022-08-20T01:49:20;93419.44;;;20.59;100.00
8334;BME280;4204;43.004;23.052;2022-08-20T01:51:49;93420.59;;;20.65;100.00
8334;BME280;4204;43.004;23.052;2022-08-20T01:54:18;93412.13;;;20.67;100.00
8334;BME280;4204;43.004;23.052;2022-08-20T01:56:55;93416.75;;;20.73;100.00
8334;BME280;4204;43.004;23.052;2022-08-20T01:59:23;93415.19;;;20.65;100.00
8334;BME280;4204;43.004;23.052;2022-08-20T02:01:51;93416.75;;;20.66;100.00
8334;BME280;4204;43.004;23.052;2022-08-20T02:04:19;93416.34;;;20.57;100.00
8334;BME280;4204;43.004;23.052;2022-08-20T02:06:52;93430.66;;;20.58;100.00
8334;BME280;4204;43.004;23.052;2022-08-20T02:09:20;93419.84;;;20.72;100.00
8334;BME280;4204;43.004;23.052;2022-08-20T02:11:48;93422.16;;;20.84;100.00
8334;BME280;4204;43.004;23.052;2022-08-20T02:14:20;93423.72;;;20.78;100.00
8334;BME280;4204;43.004;23.052;2022-08-20T02:16:47;93397.44;;;20.57;100.00
8334;BME280;4204;43.004;23.052;2022-08-20T02:19:18;93408.66;;;20.77;100.00
8334;BME280;4204;43.004;23.052;2022-08-20T02:21:54;93406.34;;;20.79;100.00
8334;BME280;4204;43.004;23.052;2022-08-20T02:24:23;93408.63;;;20.73;100.00
8334;BME280;4204;43.004;23.052;2022-08-20T02:26:51;93414.44;;;20.75;100.00
8334;BME280;4204;43.004;23.052;2022-08-20T02:29:20;93412.13;;;20.77;100.00
8334;BME280;4204;43.004;23.052;2022-08-20T02:31:48;93412.91;;;20.78;100.00
8334;BME280;4204;43.004;23.052;2022-08-20T02:34:16;93421.00;;;20.64;100.00
8334;BME280;4204;43.004;23.052;2022-08-20T02:36:44;93415.97;;;20.52;100.00
8334;BME280;4204;43.004;23.052;2022-08-20T02:39:14;93422.16;;;20.52;100.00
8334;BME280;4204;43.004;23.052;2022-08-20T02:41:42;93411.75;;;20.54;100.00
8334;BME280;4204;43.004;23.052;2022-08-20T02:44:10;93413.66;;;20.50;100.00
8334;BME280;4204;43.004;23.052;2022-08-20T02:46:39;93409.78;;;20.48;100.00
8334;BME280;4204;43.004;23.052;2022-08-20T02:49:07;93416.34;;;20.47;100.00
8334;BME280;4204;43.004;23.052;2022-08-20T02:51:35;93414.41;;;20.40;100.00
8334;BME280;4204;43.004;23.052;2022-08-20T02:54:03;93415.56;;;20.43;100.00
8334;BME280;4204;43.004;23.052;2022-08-20T02:56:30;93415.56;;;20.36;100.00
8334;BME280;4204;43.004;23.052;2022-08-20T02:58:58;93419.38;;;20.24;100.00
8334;BME280;4204;43.004;23.052;2022-08-20T03:01:26;93408.97;;;20.23;100.00
8334;BME280;4204;43.004;23.052;2022-08-20T03:03:55;93410.13;;;20.29;100.00
8334;BME280;4204;43.004;23.052;2022-08-20T03:06:24;93413.97;;;20.24;100.00
8334;BME280;4204;43.004;23.052;2022-08-20T03:08:52;93406.66;;;20.21;100.00
8334;BME280;4204;43.004;23.052;2022-08-20T03:11:21;93407.78;;;20.16;100.00
8334;BME280;4204;43.004;23.052;2022-08-20T03:13:48;93405.81;;;20.13;100.00
8334;BME280;4204;43.004;23.052;2022-08-20T03:16:17;93406.97;;;20.02;100.00
8334;BME280;4204;43.004;23.052;2022-08-20T03:18:46;93401.16;;;20.03;100.00
8334;BME280;4204;43.004;23.052;2022-08-20T03:21:15;93399.63;;;20.02;100.00
8334;BME280;4204;43.004;23.052;2022-08-20T03:23:43;93408.53;;;20.06;100.00
8334;BME280;4204;43.004;23.052;2022-08-20T03:26:12;93412.34;;;20.05;100.00
8334;BME280;4204;43.004;23.052;2022-08-20T03:28:40;93416.22;;;20.08;100.00
8334;BME280;4204;43.004;23.052;2022-08-20T03:31:09;93417.38;;;20.03;100.00
8334;BME280;4204;43.004;23.052;2022-08-20T03:33:37;93422.00;;;20.03;100.00
8334;BME280;4204;43.004;23.052;2022-08-20T03:36:05;93420.09;;;20.07;100.00
8334;BME280;4204;43.004;23.052;2022-08-20T03:38:35;93423.94;;;20.02;100.00
8334;BME280;4204;43.004;23.052;2022-08-20T03:41:03;93429.34;;;20.02;100.00
8334;BME280;4204;43.004;23.052;2022-08-20T03:43:33;93433.56;;;20.03;100.00
8334;BME280;4204;43.004;23.052;2022-08-20T03:46:02;93428.94;;;20.04;100.00
8334;BME280;4204;43.004;23.052;2022-08-20T03:48:30;93433.19;;;20.05;100.00
8334;BME280;4204;43.004;23.052;2022-08-20T03:50:58;93430.88;;;20.00;100.00
8334;BME280;4204;43.004;23.052;2022-08-20T03:53:27;93447.84;;;20.00;100.00
8334;BME280;4204;43.004;23.052;2022-08-20T03:55:59;93443.59;;;20.03;100.00
8334;BME280;4204;43.004;23.052;2022-08-20T03:58:30;93440.09;;;19.99;100.00
8334;BME280;4204;43.004;23.052;2022-08-20T04:00:59;93435.81;;;19.87;100.00
8334;BME280;4204;43.004;23.052;2022-08-20T04:03:27;93426.91;;;19.76;100.00
8334;BME280;4204;43.004;23.052;2022-08-20T04:05:54;93416.81;;;19.59;100.00
8334;BME280;4204;43.004;23.052;2022-08-20T04:08:24;93419.53;;;19.63;100.00
8334;BME280;4204;43.004;23.052;2022-08-20T04:10:53;93411.44;;;19.63;100.00
8334;BME280;4204;43.004;23.052;2022-08-20T04:13:26;93390.91;;;19.41;100.00
8334;BME280;4204;43.004;23.052;2022-08-20T04:15:54;93411.03;;;19.57;100.00
8334;BME280;4204;43.004;23.052;2022-08-20T04:18:24;93417.31;;;19.86;100.00
8334;BME280;4204;43.004;23.052;2022-08-20T04:20:52;93417.75;;;20.02;100.00
8334;BME280;4204;43.004;23.052;2022-08-20T04:23:21;93422.41;;;20.15;100.00
8334;BME280;4204;43.004;23.052;2022-08-20T04:25:49;93420.16;;;20.21;100.00
8334;BME280;4204;43.004;23.052;2022-08-20T04:28:20;93426.28;;;20.14;100.00
8334;BME280;4204;43.004;23.052;2022-08-20T04:30:51;93412.00;;;20.10;100.00
8334;BME280;4204;43.004;23.052;2022-08-20T04:33:19;93424.28;;;19.94;100.00
8334;BME280;4204;43.004;23.052;2022-08-20T04:35:47;93421.25;;;20.02;100.00
8334;BME280;4204;43.004;23.052;2022-08-20T04:38:17;93428.66;;;20.23;100.00
8334;BME280;4204;43.004;23.052;2022-08-20T04:40:45;93441.38;;;20.26;100.00
8334;BME280;4204;43.004;23.052;2022-08-20T04:43:28;93441.81;;;20.39;100.00
8334;BME280;4204;43.004;23.052;2022-08-20T04:45:59;93437.22;;;20.60;100.00
8334;BME280;4204;43.004;23.052;2022-08-20T04:48:27;93436.81;;;20.65;100.00
8334;BME280;4204;43.004;23.052;2022-08-20T04:50:56;93443.38;;;20.71;100.00
8334;BME280;4204;43.004;23.052;2022-08-20T04:53:26;93444.19;;;20.82;100.00
8334;BME280;4204;43.004;23.052;2022-08-20T04:55:56;93435.69;;;20.87;100.00
8334;BME280;4204;43.004;23.052;2022-08-20T04:58:26;93434.16;;;20.83;100.00
8334;BME280;4204;43.004;23.052;2022-08-20T05:00:59;93441.50;;;20.89;100.00
8334;BME280;4204;43.004;23.052;2022-08-20T05:03:28;93441.09;;;20.94;100.00
8334;BME280;4204;43.004;23.052;2022-08-20T05:05:56;93438.81;;;21.07;100.00
8334;BME280;4204;43.004;23.052;2022-08-20T05:08:24;93444.22;;;21.18;100.00
8334;BME280;4204;43.004;23.052;2022-08-20T05:10:53;93441.09;;;21.19;100.00
8334;BME280;4204;43.004;23.052;2022-08-20T05:13:24;93444.59;;;21.30;100.00
8334;BME280;4204;43.004;23.052;2022-08-20T05:15:52;93438.75;;;21.46;100.00
8334;BME280;4204;43.004;23.052;2022-08-20T05:18:23;93448.81;;;21.56;100.00
8334;BME280;4204;43.004;23.052;2022-08-20T05:20:52;93442.97;;;21.68;100.00
8334;BME280;4204;43.004;23.052;2022-08-20T05:23:22;93454.16;;;21.77;100.00
8334;BME280;4204;43.004;23.052;2022-08-20T05:25:50;93451.81;;;21.93;100.00
8334;BME280;4204;43.004;23.052;2022-08-20T05:28:20;93450.19;;;22.13;100.00
8334;BME280;4204;43.004;23.052;2022-08-20T05:30:49;93448.53;;;22.33;100.00
8334;BME280;4204;43.004;23.052;2022-08-20T05:33:18;93446.50;;;22.55;100.00
8334;BME280;4204;43.004;23.052;2022-08-20T05:35:49;93436.31;;;22.77;100.00
8334;BME280;4204;43.004;23.052;2022-08-20T05:38:19;93441.16;;;23.03;100.00
8334;BME280;4204;43.004;23.052;2022-08-20T05:40:47;93444.16;;;23.12;100.00
8334;BME280;4204;43.004;23.052;2022-08-20T05:43:15;93437.47;;;23.27;100.00
8334;BME280;4204;43.004;23.052;2022-08-20T05:45:45;93431.94;;;23.41;100.00
8334;BME280;4204;43.004;23.052;2022-08-20T05:48:20;93435.66;;;23.58;100.00
8334;BME280;4204;43.004;23.052;2022-08-20T05:50:51;93447.91;;;23.73;100.00
8334;BME280;4204;43.004;23.052;2022-08-20T05:53:20;93440.75;;;23.89;100.00
8334;BME280;4204;43.004;23.052;2022-08-20T05:55:48;93435.41;;;24.16;100.00
8334;BME280;4204;43.004;23.052;2022-08-20T05:58:18;93438.22;;;24.39;100.00
8334;BME280;4204;43.004;23.052;2022-08-20T06:00:47;93429.47;;;24.55;100.00
8334;BME280;4204;43.004;23.052;2022-08-20T06:03:15;93423.78;;;24.72;100.00
8334;BME280;4204;43.004;23.052;2022-08-20T06:06:03;93422.00;;;24.89;100.00
8334;BME280;4204;43.004;23.052;2022-08-20T06:08:31;93416.78;;;24.98;100.00
8334;BME280;4204;43.004;23.052;2022-08-20T06:10:59;93417.03;;;25.07;100.00
8334;BME280;4204;43.004;23.052;2022-08-20T06:13:26;93394.63;;;25.23;100.00
8334;BME280;4204;43.004;23.052;2022-08-20T06:15:54;93415.72;;;25.42;100.00
8334;BME280;4204;43.004;23.052;2022-08-20T06:18:23;93416.59;;;25.58;100.00
8334;BME280;4204;43.004;23.052;2022-08-20T06:20:51;93417.22;;;25.66;100.00
8334;BME280;4204;43.004;23.052;2022-08-20T06:23:21;93421.28;;;25.78;100.00
8334;BME280;4204;43.004;23.052;2022-08-20T06:25:50;93416.91;;;25.84;100.00
8334;BME280;4204;43.004;23.052;2022-08-20T06:28:18;93419.81;;;25.93;100.00
8334;BME280;4204;43.004;23.052;2022-08-20T06:30:46;93418.50;;;26.01;100.00
8334;BME280;4204;43.004;23.052;2022-08-20T06:33:13;93414.94;;;26.04;100.00
8334;BME280;4204;43.004;23.052;2022-08-20T06:35:41;93414.31;;;26.16;100.00
8334;BME280;4204;43.004;23.052;2022-08-20T06:38:10;93418.38;;;26.27;100.00
8334;BME280;4204;43.004;23.052;2022-08-20T06:40:39;93405.03;;;26.33;100.00
8334;BME280;4204;43.004;23.052;2022-08-20T06:43:07;93407.59;;;26.40;100.00
8334;BME280;4204;43.004;23.052;2022-08-20T06:45:35;93415.91;;;26.53;100.00
8334;BME280;4204;43.004;23.052;2022-08-20T06:48:11;93409.84;;;26.61;100.00
8334;BME280;4204;43.004;23.052;2022-08-20T06:50:42;93400.34;;;26.69;100.00
8334;BME280;4204;43.004;23.052;2022-08-20T06:53:14;93403.59;;;26.80;100.00
8334;BME280;4204;43.004;23.052;2022-08-20T06:55:46;93394.50;;;26.87;100.00
8334;BME280;4204;43.004;23.052;2022-08-20T06:58:15;93398.00;;;26.87;100.00
8334;BME280;4204;43.004;23.052;2022-08-20T07:00:43;93399.28;;;26.99;100.00
8334;BME280;4204;43.004;23.052;2022-08-20T07:03:11;93401.16;;;27.02;100.00
8334;BME280;4204;43.004;23.052;2022-08-20T07:05:43;93401.41;;;27.07;100.00
8334;BME280;4204;43.004;23.052;2022-08-20T07:08:13;93401.41;;;27.23;100.00
8334;BME280;4204;43.004;23.052;2022-08-20T07:10:41;93405.59;;;27.28;100.00
8334;BME280;4204;43.004;23.052;2022-08-20T07:13:11;93395.00;;;27.46;100.00
8334;BME280;4204;43.004;23.052;2022-08-20T07:15:41;93393.53;;;27.58;100.00
8334;BME280;4204;43.004;23.052;2022-08-20T07:18:11;93394.28;;;27.58;100.00
8334;BME280;4204;43.004;23.052;2022-08-20T07:20:39;93396.94;;;27.62;100.00
8334;BME280;4204;43.004;23.052;2022-08-20T07:23:07;93382.75;;;27.67;100.00
8334;BME280;4204;43.004;23.052;2022-08-20T07:25:38;93391.97;;;27.73;100.00
8334;BME280;4204;43.004;23.052;2022-08-20T07:28:10;93385.34;;;27.86;100.00
8334;BME280;4204;43.004;23.052;2022-08-20T07:30:40;93383.28;;;27.90;100.00
8334;BME280;4204;43.004;23.052;2022-08-20T07:33:25;93384.47;;;27.89;100.00
8334;BME280;4204;43.004;23.052;2022-08-20T07:35:53;93389.34;;;27.98;100.00
8334;BME280;4204;43.004;23.052;2022-08-20T07:38:23;93388.53;;;28.14;100.00
8334;BME280;4204;43.004;23.052;2022-08-20T07:40:52;93389.63;;;28.29;100.00
8334;BME280;4204;43.004;23.052;2022-08-20T07:43:20;93396.66;;;28.30;100.00
8334;BME280;4204;43.004;23.052;2022-08-20T07:45:51;93395.78;;;28.45;100.00
8334;BME280;4204;43.004;23.052;2022-08-20T07:48:21;93386.94;;;28.54;100.00
8334;BME280;4204;43.004;23.052;2022-08-20T07:50:49;93390.63;;;28.63;100.00
8334;BME280;4204;43.004;23.052;2022-08-20T07:53:17;93384.56;;;28.68;100.00
8334;BME280;4204;43.004;23.052;2022-08-20T07:55:45;93379.66;;;28.76;100.00
8334;BME280;4204;43.004;23.052;2022-08-20T07:58:14;93385.47;;;28.78;100.00
8334;BME280;4204;43.004;23.052;2022-08-20T08:00:45;93393.56;;;28.82;100.00
8334;BME280;4204;43.004;23.052;2022-08-20T08:03:14;93386.31;;;28.62;100.00
8334;BME280;4204;43.004;23.052;2022-08-20T08:05:45;93385.16;;;28.76;100.00
8334;BME280;4204;43.004;23.052;2022-08-20T08:08:24;93391.94;;;28.84;100.00
8334;BME280;4204;43.004;23.052;2022-08-20T08:10:59;93391.16;;;28.96;100.00
8334;BME280;4204;43.004;23.052;2022-08-20T08:13:28;93354.78;;;28.83;100.00
8334;BME280;4204;43.004;23.052;2022-08-20T08:15:59;93393.88;;;29.09;100.00
8334;BME280;4204;43.004;23.052;2022-08-20T08:18:35;93391.56;;;29.07;100.00
8334;BME280;4204;43.004;23.052;2022-08-20T08:21:05;93392.69;;;29.22;100.00
8334;BME280;4204;43.004;23.052;2022-08-20T08:23:33;93384.13;;;29.33;100.00
8334;BME280;4204;43.004;23.052;2022-08-20T08:26:01;93393.31;;;29.39;100.00
8334;BME280;4204;43.004;23.052;2022-08-20T08:28:29;93399.44;;;29.43;100.00
8334;BME280;4204;43.004;23.052;2022-08-20T08:30:57;93387.63;;;29.33;100.00
8334;BME280;4204;43.004;23.052;2022-08-20T08:33:30;93394.41;;;29.41;100.00
8334;BME280;4204;43.004;23.052;2022-08-20T08:36:00;93383.31;;;29.45;100.00
8334;BME280;4204;43.004;23.052;2022-08-20T08:38:30;93384.06;;;29.58;100.00
8334;BME280;4204;43.004;23.052;2022-08-20T08:41:16;93382.41;;;29.61;100.00
8334;BME280;4204;43.004;23.052;2022-08-20T08:43:46;93381.75;;;29.56;100.00
8334;BME280;4204;43.004;23.052;2022-08-20T08:46:17;93382.91;;;29.81;100.00
8334;BME280;4204;43.004;23.052;2022-08-20T08:48:48;93381.94;;;29.75;100.00
8334;BME280;4204;43.004;23.052;2022-08-20T08:51:23;93383.41;;;29.88;100.00
8334;BME280;4204;43.004;23.052;2022-08-20T08:53:54;93377.75;;;29.70;100.00
8334;BME280;4204;43.004;23.052;2022-08-20T08:56:25;93377.94;;;29.88;100.00
8334;BME280;4204;43.004;23.052;2022-08-20T08:58:57;93378.19;;;30.03;100.00
8334;BME280;4204;43.004;23.052;2022-08-20T09:01:27;93371.22;;;30.11;100.00
8334;BME280;4204;43.004;23.052;2022-08-20T09:04:01;93372.78;;;30.12;100.00
8334;BME280;4204;43.004;23.052;2022-08-20T09:06:31;93370.59;;;30.28;100.00
8334;BME280;4204;43.004;23.052;2022-08-20T09:09:01;93364.53;;;30.33;100.00
8334;BME280;4204;43.004;23.052;2022-08-20T09:11:30;93366.88;;;30.44;100.00
8334;BME280;4204;43.004;23.052;2022-08-20T09:13:57;93375.00;;;30.48;100.00
8334;BME280;4204;43.004;23.052;2022-08-20T09:16:27;93368.47;;;30.54;100.00
8334;BME280;4204;43.004;23.052;2022-08-20T09:18:55;93370.47;;;30.54;100.00
8334;BME280;4204;43.004;23.052;2022-08-20T09:21:26;93351.56;;;30.56;100.00
8334;BME280;4204;43.004;23.052;2022-08-20T09:23:54;93365.94;;;30.69;100.00
8334;BME280;4204;43.004;23.052;2022-08-20T09:26:22;93353.28;;;30.71;100.00
8334;BME280;4204;43.004;23.052;2022-08-20T09:28:50;93359.72;;;30.68;100.00
8334;BME280;4204;43.004;23.052;2022-08-20T09:31:18;93350.22;;;30.60;100.00
8334;BME280;4204;43.004;23.052;2022-08-20T09:33:46;93344.44;;;30.67;100.00
8334;BME280;4204;43.004;23.052;2022-08-20T09:36:14;93348.13;;;30.73;100.00
8334;BME280;4204;43.004;23.052;2022-08-20T09:38:45;93340.97;;;30.76;100.00
8334;BME280;4204;43.004;23.052;2022-08-20T09:41:13;93340.91;;;30.67;100.00
8334;BME280;4204;43.004;23.052;2022-08-20T09:43:42;93347.94;;;30.98;100.00
8334;BME280;4204;43.004;23.052;2022-08-20T09:46:10;93351.00;;;31.00;100.00
8334;BME280;4204;43.004;23.052;2022-08-20T09:48:38;93358.50;;;31.09;100.00
8334;BME280;4204;43.004;23.052;2022-08-20T09:51:06;93356.97;;;31.08;100.00
8334;BME280;4204;43.004;23.052;2022-08-20T09:53:33;93348.78;;;31.26;100.00
8334;BME280;4204;43.004;23.052;2022-08-20T09:56:03;93348.59;;;31.11;100.00
8334;BME280;4204;43.004;23.052;2022-08-20T09:58:34;93346.94;;;31.32;100.00
8334;BME280;4204;43.004;23.052;2022-08-20T10:01:07;93352.03;;;31.43;100.00
8334;BME280;4204;43.004;23.052;2022-08-20T10:03:35;93338.78;;;31.59;100.00
8334;BME280;4204;43.004;23.052;2022-08-20T10:06:03;93354.81;;;31.79;100.00
8334;BME280;4204;43.004;23.052;2022-08-20T10:08:30;93354.03;;;31.69;99.79
8334;BME280;4204;43.004;23.052;2022-08-20T10:10:58;93347.78;;;31.87;99.14
8334;BME280;4204;43.004;23.052;2022-08-20T10:13:27;93351.75;;;31.86;97.41
8334;BME280;4204;43.004;23.052;2022-08-20T10:15:55;93360.75;;;31.59;97.03
8334;BME280;4204;43.004;23.052;2022-08-20T10:18:23;93352.66;;;31.65;96.80
8334;BME280;4204;43.004;23.052;2022-08-20T10:20:51;93355.22;;;31.41;99.80
8334;BME280;4204;43.004;23.052;2022-08-20T10:23:19;93357.41;;;31.55;98.87
8334;BME280;4204;43.004;23.052;2022-08-20T10:25:47;93363.75;;;31.34;99.96
8334;BME280;4204;43.004;23.052;2022-08-20T10:28:14;93364.56;;;31.44;98.06
8334;BME280;4204;43.004;23.052;2022-08-20T10:30:43;93355.53;;;31.43;99.17
8334;BME280;4204;43.004;23.052;2022-08-20T10:33:13;93362.75;;;31.68;100.00
8334;BME280;4204;43.004;23.052;2022-08-20T10:35:40;93352.06;;;31.79;98.43
8334;BME280;4204;43.004;23.052;2022-08-20T10:38:08;93352.22;;;31.84;97.20
8334;BME280;4204;43.004;23.052;2022-08-20T10:40:36;93346.09;;;31.89;97.54
8334;BME280;4204;43.004;23.052;2022-08-20T10:43:04;93348.56;;;31.97;97.21
8334;BME280;4204;43.004;23.052;2022-08-20T10:45:31;93342.59;;;31.98;98.26
8334;BME280;4204;43.004;23.052;2022-08-20T10:48:01;93333.28;;;31.86;96.96
8334;BME280;4204;43.004;23.052;2022-08-20T10:50:28;93327.13;;;31.82;97.12
8334;BME280;4204;43.004;23.052;2022-08-20T10:52:56;93321.38;;;31.99;97.45
8334;BME280;4204;43.004;23.052;2022-08-20T10:55:24;93322.88;;;31.90;96.64
8334;BME280;4204;43.004;23.052;2022-08-20T10:57:52;93327.00;;;32.04;98.73
8334;BME280;4204;43.004;23.052;2022-08-20T11:00:20;93316.75;;;32.05;97.92
8334;BME280;4204;43.004;23.052;2022-08-20T11:02:47;93316.91;;;32.10;95.74
8334;BME280;4204;43.004;23.052;2022-08-20T11:05:17;93317.03;;;32.16;97.39
8334;BME280;4204;43.004;23.052;2022-08-20T11:07:45;93319.59;;;32.28;97.68
8334;BME280;4204;43.004;23.052;2022-08-20T11:10:13;93313.97;;;32.32;97.53
8334;BME280;4204;43.004;23.052;2022-08-20T11:12:40;93306.25;;;32.45;97.00
8334;BME280;4204;43.004;23.052;2022-08-20T11:15:09;93302.66;;;32.30;95.80
8334;BME280;4204;43.004;23.052;2022-08-20T11:17:40;93288.91;;;32.21;97.57
8334;BME280;4204;43.004;23.052;2022-08-20T11:20:10;93281.22;;;32.34;98.83
8334;BME280;4204;43.004;23.052;2022-08-20T11:22:39;93278.91;;;32.41;96.58
8334;BME280;4204;43.004;23.052;2022-08-20T11:25:07;93271.63;;;32.20;97.09
8334;BME280;4204;43.004;23.052;2022-08-20T11:27:38;93269.88;;;32.41;95.36
8334;BME280;4204;43.004;23.052;2022-08-20T11:30:09;93264.09;;;32.30;97.24
8334;BME280;4204;43.004;23.052;2022-08-20T11:32:37;93253.94;;;32.45;97.84
8334;BME280;4204;43.004;23.052;2022-08-20T11:35:06;93247.97;;;32.55;96.77
8334;BME280;4204;43.004;23.052;2022-08-20T11:37:34;93239.97;;;32.66;95.60
8334;BME280;4204;43.004;23.052;2022-08-20T11:40:04;93237.03;;;32.70;94.82
8334;BME280;4204;43.004;23.052;2022-08-20T11:42:33;93233.22;;;32.67;94.39
8334;BME280;4204;43.004;23.052;2022-08-20T11:45:03;93238.66;;;32.44;94.48
8334;BME280;4204;43.004;23.052;2022-08-20T11:47:32;93247.00;;;32.26;94.00
8334;BME280;4204;43.004;23.052;2022-08-20T11:50:03;93242.03;;;32.39;97.73
8334;BME280;4204;43.004;23.052;2022-08-20T11:52:31;93242.78;;;32.07;91.93
8334;BME280;4204;43.004;23.052;2022-08-20T11:55:00;93228.56;;;31.99;93.54
8334;BME280;4204;43.004;23.052;2022-08-20T11:57:32;93238.50;;;31.78;95.26
8334;BME280;4204;43.004;23.052;2022-08-20T12:00:04;93256.25;;;31.77;93.84
8334;BME280;4204;43.004;23.052;2022-08-20T12:02:35;93263.59;;;31.62;92.07
8334;BME280;4204;43.004;23.052;2022-08-20T12:05:10;93267.59;;;31.61;93.11
8334;BME280;4204;43.004;23.052;2022-08-20T12:07:38;93269.69;;;31.66;93.07
8334;BME280;4204;43.004;23.052;2022-08-20T12:10:07;93273.38;;;31.63;94.51
8334;BME280;4204;43.004;23.052;2022-08-20T12:12:37;93281.94;;;31.65;94.25
8334;BME280;4204;43.004;23.052;2022-08-20T12:15:07;93285.88;;;31.82;94.80
8334;BME280;4204;43.004;23.052;2022-08-20T12:17:36;93280.13;;;31.53;96.63
8334;BME280;4204;43.004;23.052;2022-08-20T12:20:07;93287.75;;;31.67;99.06
8334;BME280;4204;43.004;23.052;2022-08-20T12:22:36;93293.25;;;31.67;95.30
8334;BME280;4204;43.004;23.052;2022-08-20T12:25:06;93282.25;;;31.40;100.00
8334;BME280;4204;43.004;23.052;2022-08-20T12:27:35;93288.16;;;31.11;100.00
8334;BME280;4204;43.004;23.052;2022-08-20T12:30:07;93282.00;;;30.59;100.00
8334;BME280;4204;43.004;23.052;2022-08-20T12:32:35;93291.09;;;30.38;100.00
8334;BME280;4204;43.004;23.052;2022-08-20T12:35:03;93299.16;;;30.10;100.00
8334;BME280;4204;43.004;23.052;2022-08-20T12:37:32;93296.13;;;29.87;100.00
8334;BME280;4204;43.004;23.052;2022-08-20T12:40:02;93301.25;;;29.63;100.00
8334;BME280;4204;43.004;23.052;2022-08-20T12:42:30;93299.22;;;29.20;100.00
8334;BME280;4204;43.004;23.052;2022-08-20T12:44:59;93303.41;;;29.00;100.00
8334;BME280;4204;43.004;23.052;2022-08-20T12:47:30;93318.44;;;28.83;100.00
8334;BME280;4204;43.004;23.052;2022-08-20T12:50:04;93308.81;;;28.78;100.00
8334;BME280;4204;43.004;23.052;2022-08-20T12:52:32;93298.09;;;28.71;100.00
8334;BME280;4204;43.004;23.052;2022-08-20T12:55:01;93304.22;;;28.62;100.00
8334;BME280;4204;43.004;23.052;2022-08-20T12:57:32;93333.88;;;28.39;100.00
8334;BME280;4204;43.004;23.052;2022-08-20T13:00:07;93334.38;;;28.09;100.00
8334;BME280;4204;43.004;23.052;2022-08-20T13:02:37;93346.41;;;27.82;100.00
8334;BME280;4204;43.004;23.052;2022-08-20T13:05:07;93319.06;;;27.25;100.00
8334;BME280;4204;43.004;23.052;2022-08-20T13:07:35;93319.94;;;27.06;100.00
8334;BME280;4204;43.004;23.052;2022-08-20T13:10:05;93314.31;;;26.81;100.00
8334;BME280;4204;43.004;23.052;2022-08-20T13:12:34;93332.97;;;26.50;100.00
8334;BME280;4204;43.004;23.052;2022-08-20T13:15:02;93346.75;;;26.43;100.00